sensor_id;sensor_type;location;lat;lon;timestamp;P1;durP1;ratioP1;P2;durP2;ratioP2
28762;SDS011;15918;51.270;6.522;2023-10-31T00:01:27;4.75;;;4.45;;
28762;SDS011;15918;51.270;6.522;2023-10-31T00:03:52;5.30;;;4.90;;
28762;SDS011;15918;51.270;6.522;2023-10-31T00:06:18;5.25;;;4.85;;
28762;SDS011;15918;51.270;6.522;2023-10-31T00:08:43;4.50;;;4.30;;
28762;SDS011;15918;51.270;6.522;2023-10-31T00:11:09;4.65;;;4.35;;
28762;SDS011;15918;51.270;6.522;2023-10-31T00:13:35;4.45;;;3.65;;
28762;SDS011;15918;51.270;6.522;2023-10-31T00:16:00;3.40;;;3.10;;
28762;SDS011;15918;51.270;6.522;2023-10-31T00:18:26;4.15;;;3.53;;
28762;SDS011;15918;51.270;6.522;2023-10-31T00:20:51;3.22;;;2.95;;
28762;SDS011;15918;51.270;6.522;2023-10-31T00:23:17;3.85;;;3.38;;
28762;SDS011;15918;51.270;6.522;2023-10-31T00:25:43;3.72;;;3.38;;
28762;SDS011;15918;51.270;6.522;2023-10-31T00:28:08;3.80;;;3.50;;
28762;SDS011;15918;51.270;6.522;2023-10-31T00:30:34;4.45;;;4.05;;
28762;SDS011;15918;51.270;6.522;2023-10-31T00:32:59;4.13;;;3.72;;
28762;SDS011;15918;51.270;6.522;2023-10-31T00:35:25;4.55;;;4.10;;
28762;SDS011;15918;51.270;6.522;2023-10-31T00:37:50;4.40;;;4.10;;
28762;SDS011;15918;51.270;6.522;2023-10-31T00:40:16;4.43;;;3.97;;
28762;SDS011;15918;51.270;6.522;2023-10-31T00:42:42;5.00;;;4.22;;
28762;SDS011;15918;51.270;6.522;2023-10-31T00:45:08;4.35;;;3.70;;
28762;SDS011;15918;51.270;6.522;2023-10-31T00:47:34;5.10;;;4.65;;
28762;SDS011;15918;51.270;6.522;2023-10-31T00:50:01;4.82;;;4.40;;
28762;SDS011;15918;51.270;6.522;2023-10-31T00:52:26;4.35;;;3.88;;
28762;SDS011;15918;51.270;6.522;2023-10-31T00:54:52;4.45;;;4.07;;
28762;SDS011;15918;51.270;6.522;2023-10-31T00:57:18;6.35;;;3.78;;
28762;SDS011;15918;51.270;6.522;2023-10-31T00:59:43;6.50;;;3.45;;
28762;SDS011;15918;51.270;6.522;2023-10-31T01:02:09;8.75;;;3.78;;
28762;SDS011;15918;51.270;6.522;2023-10-31T01:04:35;5.03;;;3.50;;
28762;SDS011;15918;51.270;6.522;2023-10-31T01:07:02;4.05;;;3.55;;
28762;SDS011;15918;51.270;6.522;2023-10-31T01:09:27;5.78;;;3.10;;
28762;SDS011;15918;51.270;6.522;2023-10-31T01:11:53;4.45;;;3.30;;
28762;SDS011;15918;51.270;6.522;2023-10-31T01:14:19;4.80;;;3.17;;
28762;SDS011;15918;51.270;6.522;2023-10-31T01:16:45;6.88;;;3.28;;
28762;SDS011;15918;51.270;6.522;2023-10-31T01:19:11;4.47;;;2.67;;
28762;SDS011;15918;51.270;6.522;2023-10-31T01:21:36;5.72;;;3.25;;
28762;SDS011;15918;51.270;6.522;2023-10-31T01:24:02;5.88;;;2.72;;
28762;SDS011;15918;51.270;6.522;2023-10-31T01:26:28;7.13;;;3.20;;
28762;SDS011;15918;51.270;6.522;2023-10-31T01:28:53;7.75;;;3.47;;
28762;SDS011;15918;51.270;6.522;2023-10-31T01:31:19;7.13;;;4.22;;
28762;SDS011;15918;51.270;6.522;2023-10-31T01:33:45;6.15;;;3.92;;
28762;SDS011;15918;51.270;6.522;2023-10-31T01:36:11;5.30;;;3.60;;
28762;SDS011;15918;51.270;6.522;2023-10-31T01:38:37;6.18;;;4.35;;
28762;SDS011;15918;51.270;6.522;2023-10-31T01:41:03;6.80;;;4.55;;
28762;SDS011;15918;51.270;6.522;2023-10-31T01:43:36;9.60;;;5.50;;
28762;SDS011;15918;51.270;6.522;2023-10-31T01:46:03;7.55;;;5.70;;
28762;SDS011;15918;51.270;6.522;2023-10-31T01:48:30;6.30;;;5.13;;
28762;SDS011;15918;51.270;6.522;2023-10-31T01:50:57;8.32;;;6.68;;
28762;SDS011;15918;51.270;6.522;2023-10-31T01:53:24;7.40;;;6.47;;
28762;SDS011;15918;51.270;6.522;2023-10-31T01:55:51;6.90;;;5.82;;
28762;SDS011;15918;51.270;6.522;2023-10-31T01:58:19;8.40;;;6.28;;
28762;SDS011;15918;51.270;6.522;2023-10-31T02:00:49;10.18;;;6.13;;
28762;SDS011;15918;51.270;6.522;2023-10-31T02:03:16;7.10;;;6.25;;
28762;SDS011;15918;51.270;6.522;2023-10-31T02:05:42;7.15;;;5.55;;
28762;SDS011;15918;51.270;6.522;2023-10-31T02:08:07;6.88;;;5.38;;
28762;SDS011;15918;51.270;6.522;2023-10-31T02:10:33;8.32;;;5.05;;
28762;SDS011;15918;51.270;6.522;2023-10-31T02:13:09;7.72;;;4.85;;
28762;SDS011;15918;51.270;6.522;2023-10-31T02:15:38;6.18;;;4.80;;
28762;SDS011;15918;51.270;6.522;2023-10-31T02:18:04;7.05;;;5.32;;
28762;SDS011;15918;51.270;6.522;2023-10-31T02:20:30;6.63;;;5.35;;
28762;SDS011;15918;51.270;6.522;2023-10-31T02:22:56;7.85;;;5.47;;
28762;SDS011;15918;51.270;6.522;2023-10-31T02:25:21;7.38;;;6.13;;
28762;SDS011;15918;51.270;6.522;2023-10-31T02:27:47;6.72;;;5.57;;
28762;SDS011;15918;51.270;6.522;2023-10-31T02:30:16;7.68;;;6.53;;
28762;SDS011;15918;51.270;6.522;2023-10-31T02:32:42;8.85;;;7.90;;
28762;SDS011;15918;51.270;6.522;2023-10-31T02:35:07;10.35;;;7.93;;
28762;SDS011;15918;51.270;6.522;2023-10-31T02:37:33;11.43;;;8.05;;
28762;SDS011;15918;51.270;6.522;2023-10-31T02:39:59;14.43;;;8.88;;
28762;SDS011;15918;51.270;6.522;2023-10-31T02:42:25;10.15;;;8.32;;
28762;SDS011;15918;51.270;6.522;2023-10-31T02:44:51;10.65;;;8.68;;
28762;SDS011;15918;51.270;6.522;2023-10-31T02:47:17;10.82;;;9.00;;
28762;SDS011;15918;51.270;6.522;2023-10-31T02:49:42;11.43;;;9.15;;
28762;SDS011;15918;51.270;6.522;2023-10-31T02:52:08;11.57;;;8.88;;
28762;SDS011;15918;51.270;6.522;2023-10-31T02:54:33;10.35;;;9.07;;
28762;SDS011;15918;51.270;6.522;2023-10-31T02:56:59;12.75;;;9.25;;
28762;SDS011;15918;51.270;6.522;2023-10-31T02:59:25;11.77;;;9.65;;
28762;SDS011;15918;51.270;6.522;2023-10-31T03:01:50;11.15;;;9.20;;
28762;SDS011;15918;51.270;6.522;2023-10-31T03:04:17;11.02;;;9.77;;
28762;SDS011;15918;51.270;6.522;2023-10-31T03:06:43;11.27;;;9.25;;
28762;SDS011;15918;51.270;6.522;2023-10-31T03:09:08;10.93;;;9.75;;
28762;SDS011;15918;51.270;6.522;2023-10-31T03:11:34;11.43;;;9.48;;
28762;SDS011;15918;51.270;6.522;2023-10-31T03:13:59;13.02;;;9.98;;
28762;SDS011;15918;51.270;6.522;2023-10-31T03:16:25;14.02;;;10.30;;
28762;SDS011;15918;51.270;6.522;2023-10-31T03:18:51;11.00;;;9.77;;
28762;SDS011;15918;51.270;6.522;2023-10-31T03:21:16;11.68;;;10.00;;
28762;SDS011;15918;51.270;6.522;2023-10-31T03:23:49;10.55;;;9.25;;
28762;SDS011;15918;51.270;6.522;2023-10-31T03:26:18;11.63;;;9.95;;
28762;SDS011;15918;51.270;6.522;2023-10-31T03:28:44;11.13;;;9.60;;
28762;SDS011;15918;51.270;6.522;2023-10-31T03:31:11;14.85;;;10.20;;
28762;SDS011;15918;51.270;6.522;2023-10-31T03:33:38;13.88;;;10.23;;
28762;SDS011;15918;51.270;6.522;2023-10-31T03:36:04;11.77;;;9.95;;
28762;SDS011;15918;51.270;6.522;2023-10-31T03:38:30;10.00;;;9.10;;
28762;SDS011;15918;51.270;6.522;2023-10-31T03:40:56;10.85;;;9.82;;
28762;SDS011;15918;51.270;6.522;2023-10-31T03:43:22;10.63;;;9.07;;
28762;SDS011;15918;51.270;6.522;2023-10-31T03:45:47;12.35;;;9.23;;
28762;SDS011;15918;51.270;6.522;2023-10-31T03:48:14;12.40;;;9.55;;
28762;SDS011;15918;51.270;6.522;2023-10-31T03:50:42;10.38;;;9.30;;
28762;SDS011;15918;51.270;6.522;2023-10-31T03:53:08;10.63;;;8.63;;
28762;SDS011;15918;51.270;6.522;2023-10-31T03:55:34;9.60;;;8.52;;
28762;SDS011;15918;51.270;6.522;2023-10-31T03:57:59;9.50;;;7.88;;
28762;SDS011;15918;51.270;6.522;2023-10-31T04:00:25;10.15;;;8.55;;
28762;SDS011;15918;51.270;6.522;2023-10-31T04:02:51;9.75;;;8.68;;
28762;SDS011;15918;51.270;6.522;2023-10-31T04:05:16;10.00;;;7.88;;
28762;SDS011;15918;51.270;6.522;2023-10-31T04:07:43;8.82;;;8.02;;
28762;SDS011;15918;51.270;6.522;2023-10-31T04:10:09;9.57;;;7.70;;
28762;SDS011;15918;51.270;6.522;2023-10-31T04:12:35;11.85;;;8.88;;
28762;SDS011;15918;51.270;6.522;2023-10-31T04:15:01;9.57;;;8.05;;
28762;SDS011;15918;51.270;6.522;2023-10-31T04:17:27;9.52;;;8.32;;
28762;SDS011;15918;51.270;6.522;2023-10-31T04:19:52;8.55;;;7.22;;
28762;SDS011;15918;51.270;6.522;2023-10-31T04:22:18;10.02;;;7.25;;
28762;SDS011;15918;51.270;6.522;2023-10-31T04:24:44;8.50;;;7.13;;
28762;SDS011;15918;51.270;6.522;2023-10-31T04:27:09;7.80;;;7.07;;
28762;SDS011;15918;51.270;6.522;2023-10-31T04:29:35;8.32;;;6.95;;
28762;SDS011;15918;51.270;6.522;2023-10-31T04:32:00;7.40;;;6.70;;
28762;SDS011;15918;51.270;6.522;2023-10-31T04:34:26;10.23;;;7.15;;
28762;SDS011;15918;51.270;6.522;2023-10-31T04:36:52;13.38;;;7.30;;
28762;SDS011;15918;51.270;6.522;2023-10-31T04:39:17;18.80;;;7.18;;
28762;SDS011;15918;51.270;6.522;2023-10-31T04:41:43;11.57;;;7.60;;
28762;SDS011;15918;51.270;6.522;2023-10-31T04:44:08;7.68;;;6.57;;
28762;SDS011;15918;51.270;6.522;2023-10-31T04:46:34;8.93;;;6.88;;
28762;SDS011;15918;51.270;6.522;2023-10-31T04:48:59;8.95;;;7.18;;
28762;SDS011;15918;51.270;6.522;2023-10-31T04:51:25;9.35;;;7.43;;
28762;SDS011;15918;51.270;6.522;2023-10-31T04:53:51;7.68;;;6.50;;
28762;SDS011;15918;51.270;6.522;2023-10-31T04:56:17;8.75;;;7.07;;
28762;SDS011;15918;51.270;6.522;2023-10-31T04:58:43;7.28;;;6.65;;
28762;SDS011;15918;51.270;6.522;2023-10-31T05:01:09;7.55;;;6.85;;
28762;SDS011;15918;51.270;6.522;2023-10-31T05:03:36;7.57;;;6.60;;
28762;SDS011;15918;51.270;6.522;2023-10-31T05:06:02;9.32;;;6.65;;
28762;SDS011;15918;51.270;6.522;2023-10-31T05:08:29;8.90;;;6.90;;
28762;SDS011;15918;51.270;6.522;2023-10-31T05:10:55;7.13;;;6.47;;
28762;SDS011;15918;51.270;6.522;2023-10-31T05:13:22;8.65;;;7.72;;
28762;SDS011;15918;51.270;6.522;2023-10-31T05:15:48;7.90;;;7.13;;
28762;SDS011;15918;51.270;6.522;2023-10-31T05:18:14;8.00;;;7.30;;
28762;SDS011;15918;51.270;6.522;2023-10-31T05:20:40;8.18;;;7.43;;
28762;SDS011;15918;51.270;6.522;2023-10-31T05:23:05;9.38;;;8.25;;
28762;SDS011;15918;51.270;6.522;2023-10-31T05:25:32;9.10;;;8.07;;
28762;SDS011;15918;51.270;6.522;2023-10-31T05:27:57;9.18;;;8.25;;
28762;SDS011;15918;51.270;6.522;2023-10-31T05:30:24;9.10;;;8.23;;
28762;SDS011;15918;51.270;6.522;2023-10-31T05:32:50;9.32;;;8.50;;
28762;SDS011;15918;51.270;6.522;2023-10-31T05:35:16;8.45;;;7.68;;
28762;SDS011;15918;51.270;6.522;2023-10-31T05:37:41;8.32;;;7.55;;
28762;SDS011;15918;51.270;6.522;2023-10-31T05:40:07;8.77;;;7.75;;
28762;SDS011;15918;51.270;6.522;2023-10-31T05:42:33;8.13;;;7.32;;
28762;SDS011;15918;51.270;6.522;2023-10-31T05:44:59;8.15;;;7.03;;
28762;SDS011;15918;51.270;6.522;2023-10-31T05:47:24;7.35;;;6.63;;
28762;SDS011;15918;51.270;6.522;2023-10-31T05:49:50;8.27;;;6.82;;
28762;SDS011;15918;51.270;6.522;2023-10-31T05:52:16;6.63;;;5.90;;
28762;SDS011;15918;51.270;6.522;2023-10-31T05:54:41;6.60;;;5.82;;
28762;SDS011;15918;51.270;6.522;2023-10-31T05:57:07;5.63;;;5.20;;
28762;SDS011;15918;51.270;6.522;2023-10-31T05:59:32;6.40;;;4.85;;
28762;SDS011;15918;51.270;6.522;2023-10-31T06:01:58;6.30;;;5.68;;
28762;SDS011;15918;51.270;6.522;2023-10-31T06:04:24;6.18;;;5.07;;
28762;SDS011;15918;51.270;6.522;2023-10-31T06:06:52;6.50;;;5.43;;
28762;SDS011;15918;51.270;6.522;2023-10-31T06:09:18;6.10;;;5.70;;
28762;SDS011;15918;51.270;6.522;2023-10-31T06:11:43;7.43;;;6.75;;
28762;SDS011;15918;51.270;6.522;2023-10-31T06:14:10;8.68;;;6.95;;
28762;SDS011;15918;51.270;6.522;2023-10-31T06:16:39;7.45;;;6.82;;
28762;SDS011;15918;51.270;6.522;2023-10-31T06:19:06;13.43;;;10.07;;
28762;SDS011;15918;51.270;6.522;2023-10-31T06:21:32;17.63;;;15.65;;
28762;SDS011;15918;51.270;6.522;2023-10-31T06:23:57;16.10;;;14.68;;
28762;SDS011;15918;51.270;6.522;2023-10-31T06:26:23;15.20;;;13.18;;
28762;SDS011;15918;51.270;6.522;2023-10-31T06:28:48;14.52;;;13.13;;
28762;SDS011;15918;51.270;6.522;2023-10-31T06:31:14;14.80;;;13.57;;
28762;SDS011;15918;51.270;6.522;2023-10-31T06:33:40;16.38;;;14.98;;
28762;SDS011;15918;51.270;6.522;2023-10-31T06:36:06;15.82;;;14.32;;
28762;SDS011;15918;51.270;6.522;2023-10-31T06:38:32;14.80;;;13.50;;
28762;SDS011;15918;51.270;6.522;2023-10-31T06:40:58;14.55;;;13.18;;
28762;SDS011;15918;51.270;6.522;2023-10-31T06:43:23;12.95;;;11.75;;
28762;SDS011;15918;51.270;6.522;2023-10-31T06:45:49;12.48;;;11.38;;
28762;SDS011;15918;51.270;6.522;2023-10-31T06:48:15;14.77;;;11.50;;
28762;SDS011;15918;51.270;6.522;2023-10-31T06:50:40;12.00;;;10.75;;
28762;SDS011;15918;51.270;6.522;2023-10-31T06:53:06;11.48;;;10.40;;
28762;SDS011;15918;51.270;6.522;2023-10-31T06:55:32;12.07;;;10.93;;
28762;SDS011;15918;51.270;6.522;2023-10-31T06:57:57;12.88;;;11.68;;
28762;SDS011;15918;51.270;6.522;2023-10-31T07:00:23;13.65;;;11.20;;
28762;SDS011;15918;51.270;6.522;2023-10-31T07:02:49;12.88;;;11.68;;
28762;SDS011;15918;51.270;6.522;2023-10-31T07:05:14;11.70;;;10.50;;
28762;SDS011;15918;51.270;6.522;2023-10-31T07:07:41;13.55;;;10.80;;
28762;SDS011;15918;51.270;6.522;2023-10-31T07:10:07;12.00;;;11.00;;
28762;SDS011;15918;51.270;6.522;2023-10-31T07:12:32;12.05;;;10.93;;
28762;SDS011;15918;51.270;6.522;2023-10-31T07:14:58;11.90;;;10.82;;
28762;SDS011;15918;51.270;6.522;2023-10-31T07:17:24;13.88;;;11.35;;
28762;SDS011;15918;51.270;6.522;2023-10-31T07:19:51;11.82;;;10.63;;
28762;SDS011;15918;51.270;6.522;2023-10-31T07:22:16;11.60;;;10.60;;
28762;SDS011;15918;51.270;6.522;2023-10-31T07:24:42;11.32;;;10.32;;
28762;SDS011;15918;51.270;6.522;2023-10-31T07:27:08;10.93;;;9.93;;
28762;SDS011;15918;51.270;6.522;2023-10-31T07:29:34;13.18;;;9.90;;
28762;SDS011;15918;51.270;6.522;2023-10-31T07:32:00;10.50;;;9.43;;
28762;SDS011;15918;51.270;6.522;2023-10-31T07:34:26;9.95;;;9.02;;
28762;SDS011;15918;51.270;6.522;2023-10-31T07:36:54;8.73;;;7.93;;
28762;SDS011;15918;51.270;6.522;2023-10-31T07:39:19;9.27;;;8.18;;
28762;SDS011;15918;51.270;6.522;2023-10-31T07:41:45;9.05;;;8.15;;
28762;SDS011;15918;51.270;6.522;2023-10-31T07:44:11;10.55;;;8.20;;
28762;SDS011;15918;51.270;6.522;2023-10-31T07:46:37;8.70;;;7.90;;
28762;SDS011;15918;51.270;6.522;2023-10-31T07:49:02;8.45;;;7.75;;
28762;SDS011;15918;51.270;6.522;2023-10-31T07:51:31;8.00;;;7.30;;
28762;SDS011;15918;51.270;6.522;2023-10-31T07:53:56;7.63;;;6.93;;
28762;SDS011;15918;51.270;6.522;2023-10-31T07:56:24;7.93;;;7.20;;
28762;SDS011;15918;51.270;6.522;2023-10-31T07:58:50;8.10;;;7.40;;
28762;SDS011;15918;51.270;6.522;2023-10-31T08:01:17;7.70;;;7.03;;
28762;SDS011;15918;51.270;6.522;2023-10-31T08:03:43;8.05;;;7.22;;
28762;SDS011;15918;51.270;6.522;2023-10-31T08:06:10;8.25;;;6.93;;
28762;SDS011;15918;51.270;6.522;2023-10-31T08:08:36;7.35;;;6.72;;
28762;SDS011;15918;51.270;6.522;2023-10-31T08:11:01;7.20;;;6.60;;
28762;SDS011;15918;51.270;6.522;2023-10-31T08:13:28;7.85;;;7.15;;
28762;SDS011;15918;51.270;6.522;2023-10-31T08:15:55;7.93;;;7.22;;
28762;SDS011;15918;51.270;6.522;2023-10-31T08:18:21;8.07;;;7.28;;
28762;SDS011;15918;51.270;6.522;2023-10-31T08:20:48;7.53;;;6.90;;
28762;SDS011;15918;51.270;6.522;2023-10-31T08:23:15;7.57;;;6.90;;
28762;SDS011;15918;51.270;6.522;2023-10-31T08:25:42;7.72;;;7.03;;
28762;SDS011;15918;51.270;6.522;2023-10-31T08:28:07;9.27;;;7.40;;
28762;SDS011;15918;51.270;6.522;2023-10-31T08:30:33;8.15;;;7.38;;
28762;SDS011;15918;51.270;6.522;2023-10-31T08:32:59;8.77;;;7.05;;
28762;SDS011;15918;51.270;6.522;2023-10-31T08:35:24;7.30;;;6.35;;
28762;SDS011;15918;51.270;6.522;2023-10-31T08:37:50;19.85;;;8.13;;
28762;SDS011;15918;51.270;6.522;2023-10-31T08:40:15;7.93;;;7.13;;
28762;SDS011;15918;51.270;6.522;2023-10-31T08:42:41;8.23;;;7.40;;
28762;SDS011;15918;51.270;6.522;2023-10-31T08:45:07;10.52;;;7.28;;
28762;SDS011;15918;51.270;6.522;2023-10-31T08:47:33;8.18;;;7.47;;
28762;SDS011;15918;51.270;6.522;2023-10-31T08:49:58;8.32;;;7.72;;
28762;SDS011;15918;51.270;6.522;2023-10-31T08:52:24;8.85;;;7.88;;
28762;SDS011;15918;51.270;6.522;2023-10-31T08:54:50;8.98;;;8.07;;
28762;SDS011;15918;51.270;6.522;2023-10-31T08:57:15;9.68;;;8.43;;
28762;SDS011;15918;51.270;6.522;2023-10-31T08:59:41;9.38;;;8.50;;
28762;SDS011;15918;51.270;6.522;2023-10-31T09:02:08;9.43;;;8.32;;
28762;SDS011;15918;51.270;6.522;2023-10-31T09:04:33;8.98;;;8.18;;
28762;SDS011;15918;51.270;6.522;2023-10-31T09:07:00;9.60;;;8.70;;
28762;SDS011;15918;51.270;6.522;2023-10-31T09:09:25;10.00;;;8.57;;
28762;SDS011;15918;51.270;6.522;2023-10-31T09:11:51;11.20;;;8.20;;
28762;SDS011;15918;51.270;6.522;2023-10-31T09:14:17;14.55;;;9.07;;
28762;SDS011;15918;51.270;6.522;2023-10-31T09:16:42;9.98;;;8.85;;
28762;SDS011;15918;51.270;6.522;2023-10-31T09:19:08;9.43;;;8.20;;
28762;SDS011;15918;51.270;6.522;2023-10-31T09:21:34;9.65;;;7.63;;
28762;SDS011;15918;51.270;6.522;2023-10-31T09:23:59;8.38;;;7.65;;
28762;SDS011;15918;51.270;6.522;2023-10-31T09:26:25;8.35;;;7.40;;
28762;SDS011;15918;51.270;6.522;2023-10-31T09:28:50;9.18;;;7.75;;
28762;SDS011;15918;51.270;6.522;2023-10-31T09:31:16;10.15;;;8.10;;
28762;SDS011;15918;51.270;6.522;2023-10-31T09:33:43;9.68;;;8.20;;
28762;SDS011;15918;51.270;6.522;2023-10-31T09:36:09;9.02;;;7.78;;
28762;SDS011;15918;51.270;6.522;2023-10-31T09:38:35;9.35;;;8.40;;
28762;SDS011;15918;51.270;6.522;2023-10-31T09:41:01;8.93;;;7.78;;
28762;SDS011;15918;51.270;6.522;2023-10-31T09:43:27;10.40;;;8.43;;
28762;SDS011;15918;51.270;6.522;2023-10-31T09:45:52;9.25;;;8.18;;
28762;SDS011;15918;51.270;6.522;2023-10-31T09:48:21;9.20;;;7.93;;
28762;SDS011;15918;51.270;6.522;2023-10-31T09:50:47;9.40;;;7.82;;
28762;SDS011;15918;51.270;6.522;2023-10-31T09:53:14;10.63;;;7.35;;
28762;SDS011;15918;51.270;6.522;2023-10-31T09:55:41;9.07;;;7.88;;
28762;SDS011;15918;51.270;6.522;2023-10-31T09:58:08;8.98;;;7.75;;
28762;SDS011;15918;51.270;6.522;2023-10-31T10:00:33;9.35;;;7.95;;
28762;SDS011;15918;51.270;6.522;2023-10-31T10:03:02;8.80;;;7.50;;
28762;SDS011;15918;51.270;6.522;2023-10-31T10:05:33;9.70;;;6.85;;
28762;SDS011;15918;51.270;6.522;2023-10-31T10:08:00;9.50;;;6.82;;
28762;SDS011;15918;51.270;6.522;2023-10-31T10:10:26;8.63;;;7.20;;
28762;SDS011;15918;51.270;6.522;2023-10-31T10:12:54;9.23;;;6.60;;
28762;SDS011;15918;51.270;6.522;2023-10-31T10:15:20;7.45;;;6.05;;
28762;SDS011;15918;51.270;6.522;2023-10-31T10:17:52;9.98;;;7.07;;
28762;SDS011;15918;51.270;6.522;2023-10-31T10:20:18;6.82;;;6.13;;
28762;SDS011;15918;51.270;6.522;2023-10-31T10:22:44;10.55;;;6.57;;
28762;SDS011;15918;51.270;6.522;2023-10-31T10:25:14;7.55;;;5.95;;
28762;SDS011;15918;51.270;6.522;2023-10-31T10:27:42;7.13;;;6.10;;
28762;SDS011;15918;51.270;6.522;2023-10-31T10:30:08;9.48;;;6.65;;
28762;SDS011;15918;51.270;6.522;2023-10-31T10:32:34;7.10;;;6.30;;
28762;SDS011;15918;51.270;6.522;2023-10-31T10:35:00;7.78;;;5.95;;
28762;SDS011;15918;51.270;6.522;2023-10-31T10:37:26;12.75;;;6.28;;
28762;SDS011;15918;51.270;6.522;2023-10-31T10:39:52;7.88;;;5.93;;
28762;SDS011;15918;51.270;6.522;2023-10-31T10:42:31;8.55;;;5.70;;
28762;SDS011;15918;51.270;6.522;2023-10-31T10:45:01;6.63;;;4.90;;
28762;SDS011;15918;51.270;6.522;2023-10-31T10:47:29;6.00;;;4.30;;
28762;SDS011;15918;51.270;6.522;2023-10-31T10:49:58;6.85;;;4.20;;
28762;SDS011;15918;51.270;6.522;2023-10-31T10:52:30;6.32;;;4.07;;
28762;SDS011;15918;51.270;6.522;2023-10-31T10:55:20;5.80;;;3.67;;
28762;SDS011;15918;51.270;6.522;2023-10-31T10:58:13;8.20;;;4.22;;
28762;SDS011;15918;51.270;6.522;2023-10-31T11:00:47;4.97;;;3.40;;
28762;SDS011;15918;51.270;6.522;2023-10-31T11:03:15;4.43;;;3.42;;
28762;SDS011;15918;51.270;6.522;2023-10-31T11:05:42;6.97;;;3.47;;
28762;SDS011;15918;51.270;6.522;2023-10-31T11:08:07;4.90;;;3.42;;
28762;SDS011;15918;51.270;6.522;2023-10-31T11:10:34;5.13;;;3.47;;
28762;SDS011;15918;51.270;6.522;2023-10-31T11:13:00;6.25;;;3.25;;
28762;SDS011;15918;51.270;6.522;2023-10-31T11:15:26;4.78;;;3.00;;
28762;SDS011;15918;51.270;6.522;2023-10-31T11:17:53;5.07;;;2.97;;
28762;SDS011;15918;51.270;6.522;2023-10-31T11:20:20;6.85;;;2.92;;
28762;SDS011;15918;51.270;6.522;2023-10-31T11:22:46;4.63;;;3.38;;
28762;SDS011;15918;51.270;6.522;2023-10-31T11:25:21;4.68;;;3.10;;
28762;SDS011;15918;51.270;6.522;2023-10-31T11:27:51;4.60;;;3.17;;
28762;SDS011;15918;51.270;6.522;2023-10-31T11:32:52;4.10;;;2.80;;
28762;SDS011;15918;51.270;6.522;2023-10-31T11:35:26;3.97;;;2.67;;
28762;SDS011;15918;51.270;6.522;2023-10-31T11:38:01;3.67;;;2.85;;
28762;SDS011;15918;51.270;6.522;2023-10-31T11:40:31;4.55;;;2.95;;
28762;SDS011;15918;51.270;6.522;2023-10-31T11:42:57;4.47;;;2.90;;
28762;SDS011;15918;51.270;6.522;2023-10-31T11:48:00;5.75;;;2.70;;
28762;SDS011;15918;51.270;6.522;2023-10-31T11:50:26;4.95;;;2.90;;
28762;SDS011;15918;51.270;6.522;2023-10-31T11:52:58;3.50;;;2.42;;
28762;SDS011;15918;51.270;6.522;2023-10-31T11:55:25;4.38;;;3.10;;
28762;SDS011;15918;51.270;6.522;2023-10-31T11:57:50;4.45;;;2.63;;
28762;SDS011;15918;51.270;6.522;2023-10-31T12:00:20;3.88;;;3.00;;
28762;SDS011;15918;51.270;6.522;2023-10-31T12:03:05;3.95;;;2.25;;
28762;SDS011;15918;51.270;6.522;2023-10-31T12:05:31;4.00;;;2.70;;
28762;SDS011;15918;51.270;6.522;2023-10-31T12:07:56;3.25;;;2.30;;
28762;SDS011;15918;51.270;6.522;2023-10-31T12:10:23;4.55;;;2.70;;
28762;SDS011;15918;51.270;6.522;2023-10-31T12:12:50;4.97;;;2.50;;
28762;SDS011;15918;51.270;6.522;2023-10-31T12:15:16;4.80;;;2.30;;
28762;SDS011;15918;51.270;6.522;2023-10-31T12:17:42;3.60;;;2.15;;
28762;SDS011;15918;51.270;6.522;2023-10-31T12:20:08;3.50;;;2.65;;
28762;SDS011;15918;51.270;6.522;2023-10-31T12:22:34;4.38;;;2.70;;
28762;SDS011;15918;51.270;6.522;2023-10-31T12:25:01;3.33;;;2.15;;
28762;SDS011;15918;51.270;6.522;2023-10-31T12:27:44;3.88;;;2.90;;
28762;SDS011;15918;51.270;6.522;2023-10-31T12:30:11;6.32;;;2.88;;
28762;SDS011;15918;51.270;6.522;2023-10-31T12:32:39;3.20;;;2.58;;
28762;SDS011;15918;51.270;6.522;2023-10-31T12:35:06;5.68;;;2.97;;
28762;SDS011;15918;51.270;6.522;2023-10-31T12:37:33;5.25;;;3.00;;
28762;SDS011;15918;51.270;6.522;2023-10-31T12:39:59;5.68;;;3.00;;
28762;SDS011;15918;51.270;6.522;2023-10-31T12:42:29;5.45;;;2.92;;
28762;SDS011;15918;51.270;6.522;2023-10-31T12:44:58;5.35;;;3.25;;
28762;SDS011;15918;51.270;6.522;2023-10-31T12:47:24;6.43;;;3.30;;
28762;SDS011;15918;51.270;6.522;2023-10-31T12:52:46;3.65;;;2.90;;
28762;SDS011;15918;51.270;6.522;2023-10-31T12:55:13;6.13;;;3.65;;
28762;SDS011;15918;51.270;6.522;2023-10-31T12:57:40;6.38;;;3.83;;
28762;SDS011;15918;51.270;6.522;2023-10-31T13:00:06;6.35;;;3.40;;
28762;SDS011;15918;51.270;6.522;2023-10-31T13:02:35;4.97;;;3.40;;
28762;SDS011;15918;51.270;6.522;2023-10-31T13:05:08;5.70;;;3.47;;
28762;SDS011;15918;51.270;6.522;2023-10-31T13:07:34;5.95;;;3.60;;
28762;SDS011;15918;51.270;6.522;2023-10-31T13:10:00;5.13;;;3.40;;
28762;SDS011;15918;51.270;6.522;2023-10-31T13:12:26;8.00;;;4.13;;
28762;SDS011;15918;51.270;6.522;2023-10-31T13:14:53;7.32;;;4.10;;
28762;SDS011;15918;51.270;6.522;2023-10-31T13:17:18;6.00;;;3.85;;
28762;SDS011;15918;51.270;6.522;2023-10-31T13:19:44;9.98;;;3.92;;
28762;SDS011;15918;51.270;6.522;2023-10-31T13:22:09;5.75;;;3.88;;
28762;SDS011;15918;51.270;6.522;2023-10-31T13:24:35;9.68;;;4.32;;
28762;SDS011;15918;51.270;6.522;2023-10-31T13:27:00;7.22;;;4.18;;
28762;SDS011;15918;51.270;6.522;2023-10-31T13:29:28;7.22;;;4.25;;
28762;SDS011;15918;51.270;6.522;2023-10-31T13:31:53;5.20;;;4.20;;
28762;SDS011;15918;51.270;6.522;2023-10-31T13:34:20;8.13;;;4.40;;
28762;SDS011;15918;51.270;6.522;2023-10-31T13:36:45;5.07;;;4.35;;
28762;SDS011;15918;51.270;6.522;2023-10-31T13:39:11;7.80;;;3.63;;
28762;SDS011;15918;51.270;6.522;2023-10-31T13:41:37;4.85;;;3.40;;
28762;SDS011;15918;51.270;6.522;2023-10-31T13:44:03;8.25;;;3.45;;
28762;SDS011;15918;51.270;6.522;2023-10-31T13:46:28;9.38;;;3.50;;
28762;SDS011;15918;51.270;6.522;2023-10-31T13:48:54;5.10;;;2.88;;
28762;SDS011;15918;51.270;6.522;2023-10-31T13:51:20;8.10;;;3.22;;
28762;SDS011;15918;51.270;6.522;2023-10-31T13:53:45;3.75;;;2.92;;
28762;SDS011;15918;51.270;6.522;2023-10-31T13:56:11;4.78;;;2.90;;
28762;SDS011;15918;51.270;6.522;2023-10-31T13:58:36;3.33;;;2.70;;
28762;SDS011;15918;51.270;6.522;2023-10-31T14:01:02;6.70;;;3.10;;
28762;SDS011;15918;51.270;6.522;2023-10-31T14:03:28;6.40;;;3.25;;
28762;SDS011;15918;51.270;6.522;2023-10-31T14:05:53;5.90;;;3.67;;
28762;SDS011;15918;51.270;6.522;2023-10-31T14:08:20;12.73;;;5.25;;
28762;SDS011;15918;51.270;6.522;2023-10-31T14:10:46;11.57;;;5.30;;
28762;SDS011;15918;51.270;6.522;2023-10-31T14:13:12;17.23;;;6.47;;
28762;SDS011;15918;51.270;6.522;2023-10-31T14:15:38;14.95;;;6.82;;
28762;SDS011;15918;51.270;6.522;2023-10-31T14:18:03;13.10;;;5.80;;
28762;SDS011;15918;51.270;6.522;2023-10-31T14:20:29;11.57;;;5.15;;
28762;SDS011;15918;51.270;6.522;2023-10-31T14:22:55;10.32;;;4.13;;
28762;SDS011;15918;51.270;6.522;2023-10-31T14:25:20;9.50;;;4.70;;
28762;SDS011;15918;51.270;6.522;2023-10-31T14:27:46;9.48;;;3.92;;
28762;SDS011;15918;51.270;6.522;2023-10-31T14:30:11;8.43;;;3.58;;
28762;SDS011;15918;51.270;6.522;2023-10-31T14:32:38;10.70;;;3.60;;
28762;SDS011;15918;51.270;6.522;2023-10-31T14:35:04;9.05;;;3.15;;
28762;SDS011;15918;51.270;6.522;2023-10-31T14:37:31;11.05;;;3.80;;
28762;SDS011;15918;51.270;6.522;2023-10-31T14:39:57;7.25;;;2.72;;
28762;SDS011;15918;51.270;6.522;2023-10-31T14:42:22;8.13;;;3.20;;
28762;SDS011;15918;51.270;6.522;2023-10-31T14:44:48;10.07;;;3.97;;
28762;SDS011;15918;51.270;6.522;2023-10-31T14:47:14;12.02;;;5.30;;